Burke Lakefront Airport
KBKL : rendu visible

Aérodrome :











RETROUVEZ-NOUS SUR...

 
LOGIN :

S'inscrire | Disclaimer

   EN    FR    IT 

 









Légende :    VFR   VFR Marginal   IFR   IFR Intensif   IFR Très Intensif
Visi : 
Plafond : 
>= 8 km
>= 3000ft
5 à 8 km
1000 à 3000 ft
1500m à 5 km
500 à 1000 ft
800 à 1500m
200 à 500 ft
< 800m
< 200 ft
Symboles :   Orages  Brouillard  Fortes neiges  Fortes précipitations  Vent > 20 kt






- Altitude de l'aérodrome : 583 ft
- Code IATA : BKL


KBKL - Burke Lakefront

DERNIER METAR :
  • 211653Z 17012KT 10SM OVC100 08/02 A3002 RMK AO2 SLP169 T00830017

METARs EXPIRÉS :
  • 211553Z 16012G20KT 10SM SCT100 SCT120 08/01 A3005 RMK AO2 SLP179 T00780011
  • 211453Z 15014G20KT 8SM SCT110 06/00 A3006 RMK AO2 SLP180 T00560000 56034
  • 211353Z 16013G20KT 8SM BKN100 05/M01 A3010 RMK AO2 SLP196 T00501011

TAF N/A



MET'MAP, la Météo Aéronautique d'un coup d'oeil ! - Copyright ORBIFLY Décembre 2007 - Disclaimer

ORBIFLY MET'MAP TEAM :

Programmation & Développement : Alexandra Zaïnal
Conception & Développement : Baudouin d'Aumeries
Co-Programmation & Développement : Marc-Olivier Méhu
Soutien technique & logistique : Manuel Goepfert

Contact : metmap@orbifly.com




SOURCES & CREDITS :

   NOAA       Earth
Advisory